Time;durP1;ratioP1;P1;durP2;ratioP2;P2;SDS_P1;SDS_P2;PMS_P1;PMS_P2;Temp;Humidity;BMP_temperature;BMP_pressure;BME280_temperature;BME280_humidity;BME280_pressure;Samples;Min_cycle;Max_cycle;Signal;HPM_P1;HPM_P2
2022/03/06 00:00:46;;;;;;;30.50;15.48;;;;;;;;;;5037728;28;20513;-69
2022/03/06 00:03:13;;;;;;;28.83;14.60;;;;;;;;;;5055699;28;20128;-69
2022/03/06 00:05:39;;;;;;;27.17;14.55;;;;;;;;;;5055687;28;20131;-69
2022/03/06 00:08:06;;;;;;;33.67;15.75;;;;;;;;;;5038125;28;20052;-70
2022/03/06 00:10:32;;;;;;;30.75;16.23;;;;;;;;;;5039255;28;20040;-70
2022/03/06 00:12:58;;;;;;;32.92;15.75;;;;;;;;;;5056996;28;20412;-70
2022/03/06 00:15:26;;;;;;;32.00;15.85;;;;;;;;;;5038555;28;20075;-70
2022/03/06 00:17:53;;;;;;;30.13;16.40;;;;;;;;;;5055843;28;20431;-70
2022/03/06 00:20:19;;;;;;;32.35;15.90;;;;;;;;;;5055710;28;20503;-70
2022/03/06 00:22:45;;;;;;;30.17;15.07;;;;;;;;;;5037882;28;20040;-70
2022/03/06 00:25:11;;;;;;;30.23;15.32;;;;;;;;;;5055964;28;20373;-70
2022/03/06 00:27:37;;;;;;;30.95;16.30;;;;;;;;;;5037740;28;20088;-70
2022/03/06 00:30:04;;;;;;;30.52;16.45;;;;;;;;;;5037852;28;20048;-70
2022/03/06 00:32:30;;;;;;;34.72;16.70;;;;;;;;;;5055054;28;20049;-70
2022/03/06 00:34:56;;;;;;;35.28;17.83;;;;;;;;;;5054710;28;20443;-70
2022/03/06 00:37:22;;;;;;;37.78;18.83;;;;;;;;;;5054761;28;20063;-70
2022/03/06 00:39:48;;;;;;;37.22;19.08;;;;;;;;;;5054617;28;20048;-70
2022/03/06 00:42:14;;;;;;;35.67;19.42;;;;;;;;;;5036924;28;20052;-71
2022/03/06 00:44:40;;;;;;;36.63;19.55;;;;;;;;;;5020374;28;20132;-70
2022/03/06 00:47:06;;;;;;;36.60;19.73;;;;;;;;;;5053617;28;20643;-71
2022/03/06 00:49:32;;;;;;;40.15;20.10;;;;;;;;;;5036448;28;20071;-71
2022/03/06 00:52:01;;;;;;;33.53;18.63;;;;;;;;;;5054620;28;20037;-70
2022/03/06 00:54:27;;;;;;;36.00;20.35;;;;;;;;;;5054174;28;20041;-69
2022/03/06 00:56:53;;;;;;;38.55;18.85;;;;;;;;;;5066982;28;20139;-69
2022/03/06 00:59:19;;;;;;;41.67;20.17;;;;;;;;;;5074217;28;20455;-69
2022/03/06 01:01:45;;;;;;;40.30;20.00;;;;;;;;;;5067594;28;20068;-69
2022/03/06 01:04:11;;;;;;;39.88;19.67;;;;;;;;;;5074467;28;20044;-70
2022/03/06 01:06:37;;;;;;;40.42;20.92;;;;;;;;;;5056490;28;20080;-69
2022/03/06 01:09:04;;;;;;;38.50;20.42;;;;;;;;;;5074082;28;20055;-70
2022/03/06 01:11:30;;;;;;;37.38;19.98;;;;;;;;;;5074433;28;20201;-70
2022/03/06 01:13:57;;;;;;;42.53;21.42;;;;;;;;;;5074183;28;20048;-70
2022/03/06 01:16:23;;;;;;;40.22;20.17;;;;;;;;;;5074110;28;20044;-70
2022/03/06 01:18:49;;;;;;;33.67;19.40;;;;;;;;;;5074225;28;20060;-70
2022/03/06 01:21:15;;;;;;;35.53;18.85;;;;;;;;;;5056545;28;20049;-70
2022/03/06 01:23:41;;;;;;;35.85;19.75;;;;;;;;;;5055877;28;20045;-70
2022/03/06 01:26:07;;;;;;;36.50;19.40;;;;;;;;;;5073676;28;20044;-70
2022/03/06 01:28:33;;;;;;;32.83;18.83;;;;;;;;;;5073701;28;20098;-70
2022/03/06 01:30:59;;;;;;;33.85;18.70;;;;;;;;;;5074177;28;20095;-70
2022/03/06 01:33:25;;;;;;;32.83;17.83;;;;;;;;;;5074363;28;20041;-70
2022/03/06 01:35:51;;;;;;;38.05;18.90;;;;;;;;;;5055915;28;20139;-70
2022/03/06 01:38:17;;;;;;;32.40;17.77;;;;;;;;;;5056359;28;20132;-70
2022/03/06 01:40:43;;;;;;;35.72;19.27;;;;;;;;;;5073952;28;20032;-70
2022/03/06 01:43:09;;;;;;;36.70;18.92;;;;;;;;;;5055994;28;20048;-70
2022/03/06 01:45:35;;;;;;;38.55;19.25;;;;;;;;;;5056084;28;20121;-70
2022/03/06 01:48:03;;;;;;;35.05;18.92;;;;;;;;;;5073593;28;20507;-70
2022/03/06 01:50:33;;;;;;;34.25;18.25;;;;;;;;;;5072756;28;20441;-70
2022/03/06 01:53:00;;;;;;;37.85;18.92;;;;;;;;;;5073518;28;20044;-70
2022/03/06 01:55:27;;;;;;;36.28;18.98;;;;;;;;;;5073289;28;20044;-70
2022/03/06 01:57:54;;;;;;;39.17;19.85;;;;;;;;;;5075008;28;20043;-70
2022/03/06 02:00:24;;;;;;;35.50;19.38;;;;;;;;;;5062241;28;20041;-70
2022/03/06 02:02:50;;;;;;;35.58;19.52;;;;;;;;;;5062267;28;20113;-69
2022/03/06 02:05:17;;;;;;;35.33;18.98;;;;;;;;;;5080116;28;20458;-70
2022/03/06 02:07:43;;;;;;;37.42;19.70;;;;;;;;;;5080156;28;20047;-70
2022/03/06 02:10:09;;;;;;;36.47;19.73;;;;;;;;;;5062432;28;20135;-70
2022/03/06 02:12:36;;;;;;;34.75;18.85;;;;;;;;;;5061939;28;20048;-70
2022/03/06 02:15:04;;;;;;;37.08;18.58;;;;;;;;;;5061820;28;20044;-70
2022/03/06 02:17:30;;;;;;;37.15;19.35;;;;;;;;;;5061913;28;20044;-70
2022/03/06 02:20:00;;;;;;;36.95;18.83;;;;;;;;;;5079843;28;20044;-70
2022/03/06 02:22:33;;;;;;;37.65;19.70;;;;;;;;;;5080191;28;20098;-69
2022/03/06 02:25:01;;;;;;;34.50;18.08;;;;;;;;;;5080118;28;20407;-70
2022/03/06 02:27:27;;;;;;;38.20;19.52;;;;;;;;;;5079731;28;20408;-70
2022/03/06 02:29:53;;;;;;;37.60;19.98;;;;;;;;;;5079755;28;20392;-70
2022/03/06 02:32:21;;;;;;;36.20;19.20;;;;;;;;;;5079602;28;20060;-69
2022/03/06 02:34:48;;;;;;;36.78;19.70;;;;;;;;;;5079416;28;20565;-70
2022/03/06 02:37:15;;;;;;;38.38;19.20;;;;;;;;;;5070943;28;20511;-70
2022/03/06 02:39:43;;;;;;;37.40;19.80;;;;;;;;;;5064377;28;20048;-70
2022/03/06 02:42:10;;;;;;;41.78;19.02;;;;;;;;;;5061379;28;20483;-70
2022/03/06 02:44:36;;;;;;;38.63;19.17;;;;;;;;;;5058540;28;20067;-70
2022/03/06 02:47:02;;;;;;;39.35;20.25;;;;;;;;;;5041699;28;20041;-70
2022/03/06 02:49:27;;;;;;;37.80;19.73;;;;;;;;;;5041528;28;20040;-70
2022/03/06 02:51:53;;;;;;;34.95;18.77;;;;;;;;;;5036017;28;20047;-70
2022/03/06 02:54:22;;;;;;;37.95;19.50;;;;;;;;;;5061273;28;20048;-70
2022/03/06 02:56:48;;;;;;;33.33;19.05;;;;;;;;;;5061715;28;20040;-70
2022/03/06 02:59:15;;;;;;;36.78;19.17;;;;;;;;;;5061506;28;20434;-70
2022/03/06 03:01:41;;;;;;;36.67;19.60;;;;;;;;;;5061425;28;20048;-70
2022/03/06 03:04:08;;;;;;;34.63;18.55;;;;;;;;;;5079101;28;20114;-70
2022/03/06 03:06:34;;;;;;;34.75;18.90;;;;;;;;;;5080453;28;20068;-70
2022/03/06 03:09:00;;;;;;;37.67;19.17;;;;;;;;;;5081198;28;20052;-70
2022/03/06 03:11:26;;;;;;;38.17;19.58;;;;;;;;;;5058152;28;20090;-70
2022/03/06 03:13:52;;;;;;;36.13;19.30;;;;;;;;;;5076294;28;20048;-70
2022/03/06 03:16:18;;;;;;;40.20;20.10;;;;;;;;;;5076542;28;20376;-70
2022/03/06 03:18:44;;;;;;;36.03;18.95;;;;;;;;;;5058280;28;20044;-70
2022/03/06 03:21:10;;;;;;;34.42;19.20;;;;;;;;;;5076210;28;20097;-70
2022/03/06 03:23:36;;;;;;;35.13;19.13;;;;;;;;;;5076335;28;20054;-70
2022/03/06 03:26:02;;;;;;;38.30;18.92;;;;;;;;;;5075812;28;20044;-70
2022/03/06 03:28:28;;;;;;;35.38;19.35;;;;;;;;;;5076252;28;20368;-70
2022/03/06 03:30:54;;;;;;;33.92;19.15;;;;;;;;;;5058114;28;20051;-70
2022/03/06 03:33:20;;;;;;;33.60;18.50;;;;;;;;;;5058002;28;20052;-70
2022/03/06 03:35:46;;;;;;;37.55;18.92;;;;;;;;;;5075588;28;20396;-70
2022/03/06 03:38:12;;;;;;;34.05;18.65;;;;;;;;;;5057519;28;20056;-70
2022/03/06 03:40:38;;;;;;;29.02;17.00;;;;;;;;;;5075824;28;20045;-70
2022/03/06 03:43:04;;;;;;;31.10;17.52;;;;;;;;;;5057741;28;20040;-70
2022/03/06 03:45:30;;;;;;;28.33;16.98;;;;;;;;;;5057369;28;20392;-70
2022/03/06 03:47:56;;;;;;;29.40;16.77;;;;;;;;;;5075213;28;20454;-70
2022/03/06 03:50:22;;;;;;;35.13;17.33;;;;;;;;;;5075565;28;20033;-70
2022/03/06 03:52:48;;;;;;;33.92;17.40;;;;;;;;;;5075554;28;20411;-70
2022/03/06 03:55:14;;;;;;;36.70;17.77;;;;;;;;;;5057125;28;20053;-70
2022/03/06 03:57:40;;;;;;;29.42;15.95;;;;;;;;;;5075728;28;20037;-70
2022/03/06 04:00:06;;;;;;;29.35;16.55;;;;;;;;;;5075021;28;20507;-70
2022/03/06 04:02:32;;;;;;;30.98;17.08;;;;;;;;;;5074927;28;20471;-70
2022/03/06 04:04:58;;;;;;;31.75;17.70;;;;;;;;;;5075192;28;20052;-70
2022/03/06 04:07:24;;;;;;;30.67;17.60;;;;;;;;;;5075121;28;20125;-70
2022/03/06 04:09:50;;;;;;;30.50;17.02;;;;;;;;;;5074897;28;20044;-70
2022/03/06 04:12:16;;;;;;;31.10;17.77;;;;;;;;;;5057066;28;20048;-70
2022/03/06 04:14:42;;;;;;;28.42;16.02;;;;;;;;;;5074672;28;20049;-70
2022/03/06 04:17:08;;;;;;;28.73;16.45;;;;;;;;;;5074911;28;20039;-70
2022/03/06 04:19:35;;;;;;;32.30;16.27;;;;;;;;;;5056872;28;20048;-70
2022/03/06 04:22:01;;;;;;;26.83;15.13;;;;;;;;;;5074639;28;20040;-70
2022/03/06 04:24:26;;;;;;;26.30;15.02;;;;;;;;;;5074511;28;20052;-70
2022/03/06 04:26:53;;;;;;;29.27;16.55;;;;;;;;;;5074448;28;20484;-69
2022/03/06 04:29:19;;;;;;;28.23;15.60;;;;;;;;;;5074844;28;20037;-70
2022/03/06 04:31:45;;;;;;;28.52;16.58;;;;;;;;;;5074561;28;20051;-70
2022/03/06 04:34:11;;;;;;;27.65;15.93;;;;;;;;;;5056125;28;20139;-71
2022/03/06 04:36:37;;;;;;;26.05;15.75;;;;;;;;;;5056531;28;20048;-70
2022/03/06 04:39:03;;;;;;;31.05;16.13;;;;;;;;;;5056280;28;20052;-70
2022/03/06 04:41:29;;;;;;;28.23;15.98;;;;;;;;;;5056242;28;20072;-70
2022/03/06 04:43:56;;;;;;;30.08;16.45;;;;;;;;;;5074142;28;20082;-70
2022/03/06 04:46:22;;;;;;;34.65;18.27;;;;;;;;;;5073606;28;20076;-70
2022/03/06 04:48:48;;;;;;;26.48;16.50;;;;;;;;;;5073978;28;20044;-70
2022/03/06 04:51:14;;;;;;;32.42;16.77;;;;;;;;;;5074233;28;20086;-70
2022/03/06 04:53:40;;;;;;;30.73;16.77;;;;;;;;;;5073959;28;20045;-70
2022/03/06 04:56:06;;;;;;;32.15;17.38;;;;;;;;;;5073909;28;20135;-70
2022/03/06 04:58:32;;;;;;;30.55;17.08;;;;;;;;;;5074340;28;20076;-71
2022/03/06 05:00:58;;;;;;;29.50;16.27;;;;;;;;;;5072522;28;20548;-70
2022/03/06 05:03:24;;;;;;;28.40;16.70;;;;;;;;;;5074099;28;20131;-71
2022/03/06 05:05:51;;;;;;;26.40;15.95;;;;;;;;;;5072643;28;20087;-70
2022/03/06 05:08:17;;;;;;;25.75;15.45;;;;;;;;;;5055906;28;20052;-70
2022/03/06 05:10:43;;;;;;;29.67;16.00;;;;;;;;;;5073560;28;20515;-71
2022/03/06 05:13:12;;;;;;;25.77;15.43;;;;;;;;;;5055744;28;20044;-70
2022/03/06 05:15:37;;;;;;;;;;;;;;;;;;5056353;28;20051;-70
2022/03/06 05:18:04;;;;;;;25.73;14.68;;;;;;;;;;5074040;28;20299;-70
2022/03/06 05:20:29;;;;;;;28.02;14.85;;;;;;;;;;5074188;28;20048;-70
2022/03/06 05:22:55;;;;;;;27.10;15.88;;;;;;;;;;5074108;28;20043;-71
2022/03/06 05:25:22;;;;;;;27.50;14.35;;;;;;;;;;5073585;28;20522;-71
2022/03/06 05:27:48;;;;;;;25.90;14.98;;;;;;;;;;5055732;28;20044;-70
2022/03/06 05:30:14;;;;;;;27.70;14.73;;;;;;;;;;5073819;28;20044;-71
2022/03/06 05:32:40;;;;;;;22.50;13.02;;;;;;;;;;5072913;28;20487;-71
2022/03/06 05:35:07;;;;;;;24.13;13.88;;;;;;;;;;5073267;28;20056;-70
2022/03/06 05:37:33;;;;;;;30.90;14.73;;;;;;;;;;5073510;28;20056;-71
2022/03/06 05:39:59;;;;;;;22.80;14.10;;;;;;;;;;5073413;28;20473;-70
2022/03/06 05:42:25;;;;;;;25.13;14.13;;;;;;;;;;5055459;28;20072;-70
2022/03/06 05:44:51;;;;;;;27.35;14.65;;;;;;;;;;5073270;28;20467;-71
2022/03/06 05:47:17;;;;;;;26.90;13.80;;;;;;;;;;5055404;28;20500;-70
2022/03/06 05:49:43;;;;;;;21.98;13.10;;;;;;;;;;5073237;28;20048;-71
2022/03/06 05:52:09;;;;;;;23.05;13.75;;;;;;;;;;5073224;28;20040;-71
2022/03/06 05:54:35;;;;;;;19.65;12.85;;;;;;;;;;5073141;28;20097;-71
2022/03/06 05:57:01;;;;;;;23.83;11.85;;;;;;;;;;5055382;28;20132;-71
2022/03/06 05:59:27;;;;;;;22.55;12.20;;;;;;;;;;5072148;28;20127;-71
2022/03/06 06:01:53;;;;;;;22.52;12.10;;;;;;;;;;5073496;28;20040;-70
2022/03/06 06:04:19;;;;;;;19.77;12.35;;;;;;;;;;5073617;28;20051;-70
2022/03/06 06:06:45;;;;;;;23.25;11.75;;;;;;;;;;5055364;28;20388;-71
2022/03/06 06:09:11;;;;;;;18.55;11.35;;;;;;;;;;5073416;28;20045;-71
2022/03/06 06:11:37;;;;;;;20.52;12.10;;;;;;;;;;5073124;28;20115;-71
2022/03/06 06:14:04;;;;;;;19.00;12.10;;;;;;;;;;5073053;28;20037;-71
2022/03/06 06:16:30;;;;;;;22.52;12.00;;;;;;;;;;5073473;28;20072;-71
2022/03/06 06:18:56;;;;;;;20.55;11.77;;;;;;;;;;5073274;28;20051;-71
2022/03/06 06:21:22;;;;;;;19.48;11.68;;;;;;;;;;5074789;28;20123;-71
2022/03/06 06:23:48;;;;;;;18.98;11.05;;;;;;;;;;5073512;28;20110;-71
2022/03/06 06:26:14;;;;;;;22.92;10.70;;;;;;;;;;5055108;28;20048;-71
2022/03/06 06:28:41;;;;;;;20.58;10.80;;;;;;;;;;5073452;28;20116;-71
2022/03/06 06:31:07;;;;;;;24.23;10.85;;;;;;;;;;5073201;28;20052;-71
2022/03/06 06:33:34;;;;;;;17.35;10.30;;;;;;;;;;5055218;28;20491;-71
2022/03/06 06:36:00;;;;;;;16.20;10.07;;;;;;;;;;5072868;28;20057;-71
2022/03/06 06:38:27;;;;;;;18.75;10.10;;;;;;;;;;5072667;28;20048;-72
2022/03/06 06:40:54;;;;;;;16.57;9.87;;;;;;;;;;5073055;28;20044;-71
2022/03/06 06:43:20;;;;;;;34.58;11.60;;;;;;;;;;5073137;28;20319;-71
2022/03/06 06:45:47;;;;;;;16.10;9.10;;;;;;;;;;5074778;28;20082;-71
2022/03/06 06:48:13;;;;;;;38.92;12.52;;;;;;;;;;5076874;28;20048;-71
2022/03/06 06:50:39;;;;;;;17.20;9.35;;;;;;;;;;5058628;28;20040;-71
2022/03/06 06:53:05;;;;;;;11.75;8.13;;;;;;;;;;5076261;28;20567;-71
2022/03/06 06:55:31;;;;;;;12.55;7.85;;;;;;;;;;5076744;28;20084;-71
2022/03/06 06:57:57;;;;;;;14.10;7.63;;;;;;;;;;5058163;28;20055;-72
2022/03/06 07:00:23;;;;;;;13.90;7.03;;;;;;;;;;5076451;28;20040;-71
2022/03/06 07:02:49;;;;;;;11.50;7.95;;;;;;;;;;5076973;28;20045;-71
2022/03/06 07:05:15;;;;;;;18.83;8.98;;;;;;;;;;5076588;28;20114;-71
2022/03/06 07:07:41;;;;;;;13.20;6.72;;;;;;;;;;5076440;28;20411;-71
2022/03/06 07:10:07;;;;;;;14.20;6.22;;;;;;;;;;5058356;28;20048;-72
2022/03/06 07:12:47;;;;;;;9.13;6.38;;;;;;;;;;5076024;28;20467;-72
2022/03/06 07:15:13;;;;;;;10.93;5.90;;;;;;;;;;5041276;28;20048;-72
2022/03/06 07:17:40;;;;;;;14.60;6.10;;;;;;;;;;5075916;28;20045;-71
2022/03/06 07:20:06;;;;;;;12.32;6.10;;;;;;;;;;5058022;28;20070;-71
2022/03/06 07:22:32;;;;;;;14.13;6.38;;;;;;;;;;5076136;28;20043;-71
2022/03/06 07:24:58;;;;;;;13.52;6.13;;;;;;;;;;5076039;28;20045;-72
2022/03/06 07:27:24;;;;;;;26.05;8.48;;;;;;;;;;5075846;28;20045;-71
2022/03/06 07:29:50;;;;;;;15.45;6.80;;;;;;;;;;5075744;28;20090;-71
2022/03/06 07:32:16;;;;;;;14.13;6.45;;;;;;;;;;5058471;28;20042;-71
2022/03/06 07:34:42;;;;;;;15.13;5.93;;;;;;;;;;5058003;28;20084;-72
2022/03/06 07:37:08;;;;;;;11.77;5.95;;;;;;;;;;5075626;28;20056;-72
2022/03/06 07:39:34;;;;;;;13.65;6.20;;;;;;;;;;5076079;28;20048;-71
2022/03/06 07:42:01;;;;;;;9.25;5.68;;;;;;;;;;5069152;28;20037;-71
2022/03/06 07:44:27;;;;;;;14.18;6.15;;;;;;;;;;5056617;28;20049;-71
2022/03/06 07:46:53;;;;;;;16.67;7.53;;;;;;;;;;5056370;28;20051;-70
2022/03/06 07:49:19;;;;;;;23.90;8.38;;;;;;;;;;5056734;28;20408;-71
2022/03/06 07:51:45;;;;;;;12.40;6.13;;;;;;;;;;5056247;28;20095;-71
2022/03/06 07:54:14;;;;;;;13.27;6.45;;;;;;;;;;5056524;28;20056;-72
2022/03/06 07:56:40;;;;;;;8.07;5.80;;;;;;;;;;5055592;28;20049;-71
2022/03/06 07:59:06;;;;;;;15.43;6.30;;;;;;;;;;5038710;28;20487;-71
2022/03/06 08:01:32;;;;;;;11.43;6.28;;;;;;;;;;5056586;28;20067;-71
2022/03/06 08:03:58;;;;;;;11.65;6.60;;;;;;;;;;5038166;28;20522;-71
2022/03/06 08:06:24;;;;;;;12.20;6.07;;;;;;;;;;5056082;28;20408;-71
2022/03/06 08:08:50;;;;;;;13.25;6.28;;;;;;;;;;5046921;28;20362;-72
2022/03/06 08:11:16;;;;;;;10.02;5.97;;;;;;;;;;5053970;28;20053;-72
2022/03/06 08:13:43;;;;;;;9.73;5.82;;;;;;;;;;5056306;28;20045;-72
2022/03/06 08:16:09;;;;;;;10.75;6.18;;;;;;;;;;5056798;28;20041;-72
2022/03/06 08:18:35;;;;;;;10.13;5.95;;;;;;;;;;5055384;28;20408;-73
2022/03/06 08:21:01;;;;;;;10.10;5.50;;;;;;;;;;5055304;28;20427;-71
2022/03/06 08:23:27;;;;;;;10.15;5.35;;;;;;;;;;5055439;28;20044;-71
2022/03/06 08:25:53;;;;;;;11.18;5.85;;;;;;;;;;5055854;28;20045;-72
2022/03/06 08:28:19;;;;;;;7.78;5.88;;;;;;;;;;5055766;28;20049;-72
2022/03/06 08:30:45;;;;;;;10.85;6.10;;;;;;;;;;5055674;28;20136;-71
2022/03/06 08:33:12;;;;;;;18.02;7.25;;;;;;;;;;5054772;28;20053;-71
2022/03/06 08:35:38;;;;;;;16.35;6.35;;;;;;;;;;5055413;28;20521;-71
2022/03/06 08:38:04;;;;;;;12.68;5.40;;;;;;;;;;5054410;28;20049;-72
2022/03/06 08:40:31;;;;;;;12.25;5.88;;;;;;;;;;5056107;28;20384;-72
2022/03/06 08:42:57;;;;;;;10.60;4.82;;;;;;;;;;5058319;28;20041;-72
2022/03/06 08:45:23;;;;;;;11.45;5.60;;;;;;;;;;5056145;28;20396;-72
2022/03/06 08:47:49;;;;;;;11.65;5.43;;;;;;;;;;5053762;28;20095;-71
2022/03/06 08:50:15;;;;;;;13.00;5.57;;;;;;;;;;5053742;28;20127;-72
2022/03/06 08:52:41;;;;;;;12.30;6.13;;;;;;;;;;5055708;28;20099;-71
2022/03/06 08:55:09;;;;;;;11.32;5.47;;;;;;;;;;5056099;28;20475;-71
2022/03/06 08:57:35;;;;;;;15.63;6.30;;;;;;;;;;5054984;28;20045;-71
2022/03/06 09:00:01;;;;;;;15.35;5.65;;;;;;;;;;5054395;28;20171;-71
2022/03/06 09:02:27;;;;;;;10.88;5.40;;;;;;;;;;5045295;28;20087;-73
2022/03/06 09:04:53;;;;;;;11.20;5.10;;;;;;;;;;5037693;28;20045;-72
2022/03/06 09:07:19;;;;;;;16.40;5.95;;;;;;;;;;5056325;28;20048;-72
2022/03/06 09:09:45;;;;;;;42.95;8.55;;;;;;;;;;5054921;28;20396;-72
2022/03/06 09:12:11;;;;;;;23.38;7.85;;;;;;;;;;5036130;28;20052;-72
2022/03/06 09:14:37;;;;;;;7.32;5.00;;;;;;;;;;5053877;28;20055;-72
2022/03/06 09:17:03;;;;;;;9.32;5.03;;;;;;;;;;5053692;28;20119;-71
2022/03/06 09:19:29;;;;;;;16.75;6.68;;;;;;;;;;5053970;28;20044;-71
2022/03/06 09:21:55;;;;;;;10.65;5.18;;;;;;;;;;5037191;28;20404;-72
2022/03/06 09:24:21;;;;;;;7.72;4.60;;;;;;;;;;5037648;28;20136;-71
2022/03/06 09:26:47;;;;;;;12.75;5.32;;;;;;;;;;5055896;28;20086;-72
2022/03/06 09:29:13;;;;;;;13.80;5.00;;;;;;;;;;5035706;28;20059;-72
2022/03/06 09:31:43;;;;;;;6.30;4.80;;;;;;;;;;5051635;28;20037;-72
2022/03/06 09:34:09;;;;;;;15.90;5.95;;;;;;;;;;5045174;28;20091;-72
2022/03/06 09:36:36;;;;;;;9.27;5.30;;;;;;;;;;5053707;28;20049;-72
2022/03/06 09:39:03;;;;;;;11.13;4.80;;;;;;;;;;5036547;28;20103;-73
2022/03/06 09:41:29;;;;;;;6.55;4.93;;;;;;;;;;5056522;28;20041;-72
2022/03/06 09:43:56;;;;;;;6.43;5.00;;;;;;;;;;5054609;28;20048;-73
2022/03/06 09:46:22;;;;;;;11.70;5.15;;;;;;;;;;5055040;28;20045;-73
2022/03/06 09:48:48;;;;;;;6.72;4.85;;;;;;;;;;5054035;28;20099;-72
2022/03/06 09:51:14;;;;;;;11.82;5.13;;;;;;;;;;5055202;28;20041;-73
2022/03/06 09:53:40;;;;;;;10.30;5.65;;;;;;;;;;5055234;28;20094;-72
2022/03/06 09:56:07;;;;;;;8.50;5.65;;;;;;;;;;5035742;28;20041;-72
2022/03/06 09:58:33;;;;;;;13.55;5.63;;;;;;;;;;5054395;28;20041;-73
2022/03/06 10:00:59;;;;;;;16.15;5.72;;;;;;;;;;5054999;28;20528;-72
2022/03/06 10:03:25;;;;;;;18.83;6.38;;;;;;;;;;5055613;28;20041;-72
2022/03/06 10:05:51;;;;;;;12.40;5.65;;;;;;;;;;5054823;28;20171;-72
2022/03/06 10:08:17;;;;;;;7.80;4.78;;;;;;;;;;5054208;28;20126;-72
2022/03/06 10:10:44;;;;;;;7.00;4.45;;;;;;;;;;5053654;28;20492;-72
2022/03/06 10:13:19;;;;;;;6.53;4.38;;;;;;;;;;5052694;28;20385;-73
2022/03/06 10:15:57;;;;;;;10.40;5.47;;;;;;;;;;5052815;28;20502;-73
2022/03/06 10:18:23;;;;;;;7.43;4.63;;;;;;;;;;5035157;28;20051;-72
2022/03/06 10:20:49;;;;;;;19.10;6.63;;;;;;;;;;5058375;28;20115;-73
2022/03/06 10:23:25;;;;;;;7.90;4.60;;;;;;;;;;5058524;28;20123;-72
2022/03/06 10:26:01;;;;;;;6.80;4.30;;;;;;;;;;5059580;28;20040;-72
2022/03/06 10:28:27;;;;;;;14.93;5.75;;;;;;;;;;5059102;28;20415;-72
2022/03/06 10:30:53;;;;;;;10.05;5.20;;;;;;;;;;5058291;28;20049;-72
2022/03/06 10:33:20;;;;;;;7.45;4.55;;;;;;;;;;5058723;28;20076;-72
2022/03/06 10:35:47;;;;;;;8.38;4.45;;;;;;;;;;5039243;28;20068;-71
2022/03/06 10:38:32;;;;;;;7.13;4.20;;;;;;;;;;5050281;28;20052;-71
2022/03/06 10:41:08;;;;;;;6.68;4.43;;;;;;;;;;5077752;28;20041;-71
2022/03/06 10:43:35;;;;;;;7.80;4.68;;;;;;;;;;5059645;28;20055;-71
2022/03/06 10:46:09;;;;;;;9.77;4.43;;;;;;;;;;5077860;28;20047;-71
2022/03/06 10:48:35;;;;;;;8.10;4.45;;;;;;;;;;5077094;28;20044;-72
2022/03/06 10:51:02;;;;;;;6.43;4.30;;;;;;;;;;5077815;28;20120;-72
2022/03/06 10:53:28;;;;;;;6.18;3.78;;;;;;;;;;5078050;28;20045;-72
2022/03/06 10:55:55;;;;;;;6.53;3.70;;;;;;;;;;5077939;28;20360;-72
2022/03/06 10:58:21;;;;;;;6.72;4.07;;;;;;;;;;5077314;28;20055;-72
2022/03/06 11:00:48;;;;;;;10.95;4.55;;;;;;;;;;5077458;28;20094;-72
2022/03/06 11:03:14;;;;;;;6.65;3.40;;;;;;;;;;5059847;28;20040;-72
2022/03/06 11:05:42;;;;;;;8.13;3.80;;;;;;;;;;5077273;28;20054;-72
2022/03/06 11:08:08;;;;;;;6.65;3.30;;;;;;;;;;5060269;28;20044;-73
2022/03/06 11:10:34;;;;;;;15.13;4.63;;;;;;;;;;5059302;28;20080;-72
2022/03/06 11:13:02;;;;;;;9.95;4.05;;;;;;;;;;5078620;28;20047;-74
2022/03/06 11:15:28;;;;;;;10.95;3.30;;;;;;;;;;5076493;28;20052;-74
2022/03/06 11:17:54;;;;;;;7.00;3.33;;;;;;;;;;5075545;28;20041;-75
2022/03/06 11:20:20;;;;;;;8.13;3.30;;;;;;;;;;5075835;28;20036;-76
2022/03/06 11:22:55;;;;;;;3.78;2.83;;;;;;;;;;5075861;28;20063;-75
2022/03/06 11:25:25;;;;;;;25.33;5.70;;;;;;;;;;5075667;28;20178;-76
2022/03/06 11:27:50;;;;;;;7.68;2.95;;;;;;;;;;5075710;28;20396;-74
2022/03/06 11:30:18;;;;;;;4.78;2.97;;;;;;;;;;5074994;28;20036;-74
2022/03/06 11:32:46;;;;;;;9.70;3.50;;;;;;;;;;5075518;28;20115;-74
2022/03/06 11:35:18;;;;;;;9.68;2.97;;;;;;;;;;5075298;28;20224;-74
2022/03/06 11:37:50;;;;;;;8.02;3.45;;;;;;;;;;5076098;28;20056;-75
2022/03/06 11:40:45;;;;;;;7.63;2.90;;;;;;;;;;5075410;28;20051;-75
2022/03/06 11:43:31;;;;;;;4.60;2.80;;;;;;;;;;5073628;28;20503;-75
2022/03/06 11:46:16;;;;;;;7.57;3.60;;;;;;;;;;5075338;28;20049;-75
2022/03/06 11:48:43;;;;;;;6.22;3.05;;;;;;;;;;5075245;28;20048;-76
2022/03/06 11:51:15;;;;;;;8.82;4.00;;;;;;;;;;5057026;28;20503;-75
2022/03/06 11:53:56;;;;;;;5.43;2.90;;;;;;;;;;5075392;28;20049;-75
2022/03/06 11:56:31;;;;;;;6.45;3.33;;;;;;;;;;5075251;28;20088;-74
2022/03/06 11:58:58;;;;;;;8.50;3.28;;;;;;;;;;5074987;28;20044;-75
2022/03/06 12:01:28;;;;;;;6.18;3.15;;;;;;;;;;5075195;28;20051;-74
2022/03/06 12:03:55;;;;;;;10.25;4.05;;;;;;;;;;5075140;28;20068;-74
2022/03/06 12:06:23;;;;;;;5.82;3.35;;;;;;;;;;5057219;28;20060;-75
2022/03/06 12:08:51;;;;;;;7.07;3.08;;;;;;;;;;5074845;28;20044;-74
2022/03/06 12:11:19;;;;;;;7.20;3.42;;;;;;;;;;5074797;28;20176;-74
2022/03/06 12:13:49;;;;;;;6.00;3.30;;;;;;;;;;5074973;28;20098;-74
2022/03/06 12:16:16;;;;;;;5.28;2.75;;;;;;;;;;5074920;28;20060;-75
2022/03/06 12:19:01;;;;;;;5.45;3.08;;;;;;;;;;5074907;28;20076;-75
2022/03/06 12:21:36;;;;;;;10.23;3.70;;;;;;;;;;5074805;28;20049;-75
2022/03/06 12:24:09;;;;;;;7.38;3.63;;;;;;;;;;5074815;28;20050;-74
2022/03/06 12:26:45;;;;;;;10.95;4.05;;;;;;;;;;5074393;28;20086;-74
2022/03/06 12:29:30;;;;;;;9.18;3.53;;;;;;;;;;5074979;28;20071;-75
2022/03/06 12:31:56;;;;;;;66.25;14.80;;;;;;;;;;5074596;28;20072;-75
2022/03/06 12:34:36;;;;;;;6.50;3.30;;;;;;;;;;5073927;28;20091;-74
2022/03/06 12:37:02;;;;;;;8.50;4.20;;;;;;;;;;5074028;28;20505;-74
2022/03/06 12:39:29;;;;;;;7.32;3.50;;;;;;;;;;5074217;28;20049;-74
2022/03/06 12:41:55;;;;;;;6.30;3.20;;;;;;;;;;5074188;28;20116;-74
2022/03/06 12:44:25;;;;;;;6.65;3.10;;;;;;;;;;5074480;28;20467;-74
2022/03/06 12:46:51;;;;;;;6.80;3.33;;;;;;;;;;5074179;28;20044;-75
2022/03/06 12:49:17;;;;;;;5.35;3.03;;;;;;;;;;5073931;28;20495;-75
2022/03/06 12:51:47;;;;;;;7.80;3.20;;;;;;;;;;5056037;28;20049;-76
2022/03/06 12:54:18;;;;;;;4.57;3.08;;;;;;;;;;5039728;28;20048;-75
2022/03/06 12:56:44;;;;;;;5.78;3.15;;;;;;;;;;5074067;28;20118;-75
2022/03/06 12:59:15;;;;;;;8.38;3.50;;;;;;;;;;5073858;28;20100;-75
2022/03/06 13:01:41;;;;;;;5.90;3.53;;;;;;;;;;5056197;28;20086;-76
2022/03/06 13:04:08;;;;;;;6.78;3.72;;;;;;;;;;5074100;28;20048;-75
2022/03/06 13:06:38;;;;;;;7.68;3.65;;;;;;;;;;5074268;28;20507;-76
2022/03/06 13:09:04;;;;;;;5.15;2.80;;;;;;;;;;5074613;28;20036;-73
2022/03/06 13:11:33;;;;;;;7.03;3.30;;;;;;;;;;5055845;28;20053;-76
2022/03/06 13:14:01;;;;;;;6.60;3.47;;;;;;;;;;5073565;28;20075;-76
2022/03/06 13:16:27;;;;;;;5.57;3.03;;;;;;;;;;5073506;28;20106;-76
2022/03/06 13:18:58;;;;;;;7.97;3.17;;;;;;;;;;5055637;28;20068;-76
2022/03/06 13:21:25;;;;;;;5.13;3.42;;;;;;;;;;5039031;28;20052;-75
2022/03/06 13:24:11;;;;;;;6.72;3.30;;;;;;;;;;5073525;28;20476;-76
2022/03/06 13:26:37;;;;;;;6.70;3.40;;;;;;;;;;5073425;28;20040;-75
2022/03/06 13:29:04;;;;;;;6.38;3.33;;;;;;;;;;5073676;28;20094;-76
2022/03/06 13:31:40;;;;;;;8.27;3.60;;;;;;;;;;5073353;28;20400;-74
2022/03/06 13:34:08;;;;;;;7.90;3.30;;;;;;;;;;5073152;28;20047;-75
2022/03/06 13:36:37;;;;;;;5.57;3.35;;;;;;;;;;5073279;28;20094;-75
2022/03/06 13:39:08;;;;;;;10.15;3.95;;;;;;;;;;5055485;28;20491;-75
2022/03/06 13:41:34;;;;;;;8.40;4.07;;;;;;;;;;5055150;28;20044;-75
2022/03/06 13:44:00;;;;;;;7.82;4.03;;;;;;;;;;5073302;28;20059;-76
2022/03/06 13:46:26;;;;;;;6.60;3.95;;;;;;;;;;5055570;28;20045;-76
2022/03/06 13:49:06;;;;;;;17.17;5.43;;;;;;;;;;5073184;28;20113;-75
2022/03/06 13:51:33;;;;;;;7.47;3.95;;;;;;;;;;5073117;28;20036;-75
2022/03/06 13:54:00;;;;;;;7.68;3.70;;;;;;;;;;5072283;28;20047;-76
2022/03/06 13:56:29;;;;;;;16.23;5.40;;;;;;;;;;5073266;28;20093;-75
2022/03/06 13:58:55;;;;;;;5.15;3.50;;;;;;;;;;5073006;28;20049;-73
2022/03/06 14:01:21;;;;;;;7.65;3.67;;;;;;;;;;5055207;28;20049;-75
2022/03/06 14:03:47;;;;;;;6.65;3.83;;;;;;;;;;5055020;28;20047;-74
2022/03/06 14:06:13;;;;;;;6.65;3.65;;;;;;;;;;5073330;28;20051;-74
2022/03/06 14:08:46;;;;;;;5.40;3.65;;;;;;;;;;5072790;28;20048;-75
2022/03/06 14:11:26;;;;;;;6.78;3.78;;;;;;;;;;5055195;28;20049;-74
2022/03/06 14:13:53;;;;;;;8.45;4.13;;;;;;;;;;5038743;28;20499;-73
2022/03/06 14:16:19;;;;;;;8.80;4.43;;;;;;;;;;5073460;28;20044;-75
2022/03/06 14:18:49;;;;;;;5.82;3.00;;;;;;;;;;5073289;28;20047;-74
2022/03/06 14:21:18;;;;;;;5.30;3.22;;;;;;;;;;5072841;28;20053;-75
2022/03/06 14:23:49;;;;;;;9.70;4.30;;;;;;;;;;5073144;28;20090;-74
2022/03/06 14:26:18;;;;;;;6.60;3.85;;;;;;;;;;5072753;28;20047;-74
2022/03/06 14:29:00;;;;;;;5.68;3.47;;;;;;;;;;5072852;28;20094;-74